Max Winner — 9HA4071 — position and weather

sailwx.info

Track history (hours):
 
Tides and Currents Weather Stations Pressure Air Temp Water Temp Dewpoint Dewpoint Depression Visibility Wind Speed Wind Dir Waves Ship Positions

Max Winner

Last reported at 2017-Nov-24 14:54 UTC. Time now 2017-Nov-24 15:17 UTC.
Position N 50°09' E 000°09'.

Length 162 m; draft 7.7 m.

Type: Other ship. MMSI: 249052000.

Date/timePositionNaut miles runAvg speedWind from/ knotsBaromVisibWave heightAir tempDewpointWater temp
2017-Nov-24 14:54N 50°09' E 000°09'0 0.5
2017-Nov-24 14:18N 50°09' E 000°09'0 0.8
2017-Nov-24 13:57N 50°09' E 000°08'1 1.1
2017-Nov-24 13:21N 50°08' E 000°07'1 1.5
2017-Nov-24 13:00N 50°08' E 000°07'1 1.9
2017-Nov-24 12:29N 50°08' E 000°05'1 2.1
2017-Nov-24 11:56N 50°07' E 000°03'1 2.1
2017-Nov-24 11:26N 50°07' E 000°02'1 1.6
2017-Nov-24 10:50N 50°07' E 000°00'1 3.3
2017-Nov-24 10:30N 50°08' W 000°01'714.8
2017-Nov-24 10:00N 50°09' W 000°13'815.6
2017-Nov-24 09:30N 50°10' W 000°24'2714.2
2017-Nov-24 07:38N 50°25' W 000°59'213.9
2017-Nov-24 07:31N 50°27' W 000°60'714.8
2017-Nov-24 07:01N 50°34' W 001°00'713.7
2017-Nov-24 06:30N 50°41' W 000°58'4 9.0
2017-Nov-24 06:00N 50°44' W 001°04'5 9.7
2017-Nov-24 05:30N 50°49' W 001°07'1 1.6
2017-Nov-24 05:00N 50°49' W 001°05'0 0.0
2017-Nov-24 04:30N 50°49' W 001°05'0 0.0
2017-Nov-24 04:00N 50°49' W 001°05'0 0.0
2017-Nov-24 03:30N 50°49' W 001°05'0 0.0
2017-Nov-24 03:00N 50°49' W 001°05'0 0.0
2017-Nov-24 02:30N 50°49' W 001°05'0 0.0
2017-Nov-24 02:00N 50°49' W 001°05'0 0.0
2017-Nov-24 01:30N 50°49' W 001°05'0 0.0
2017-Nov-24 01:00N 50°49' W 001°05'0 0.0
2017-Nov-24 00:30N 50°49' W 001°05'0 0.0
2017-Nov-24 00:00N 50°49' W 001°05'0 0.0
2017-Nov-23 23:30N 50°49' W 001°05'0 0.2
2017-Nov-23 23:01N 50°49' W 001°06'1 2.5
2017-Nov-23 22:30N 50°48' W 001°07'4 7.7
2017-Nov-23 22:00N 50°44' W 001°04'5 9.2
2017-Nov-23 21:30N 50°41' W 000°58'4 8.5
2017-Nov-23 21:00N 50°37' W 000°60'4 8.5
2017-Nov-23 20:30N 50°33' W 000°59'4 8.3
2017-Nov-23 20:00N 50°29' W 000°59'13 8.1
2017-Nov-23 18:23N 50°16' W 001°00'3 7.7
2017-Nov-23 18:00N 50°13' W 001°00'4 7.3
2017-Nov-23 17:31N 50°09' W 001°01'3 6.9
2017-Nov-23 17:01N 50°08' W 001°06'3 7.0
2017-Nov-23 16:31N 50°07' W 001°11'4 7.1
2017-Nov-23 16:01N 50°06' W 001°16'4 7.1
2017-Nov-23 15:31N 50°05' W 001°22'4 7.5
2017-Nov-23 15:01N 50°04' W 001°27'5 9.6
2017-Nov-23 14:30N 50°03' W 001°35'612.2
2017-Nov-23 14:00N 50°01' W 001°44'612.9
2017-Nov-23 13:31N 49°59' W 001°53'713.4
2017-Nov-23 13:00N 49°57' W 002°03'713.9
2017-Nov-23 12:30N 49°55' W 002°14'11014.8
2017-Nov-23 05:06N 49°05' W 004°44'215.7
2017-Nov-23 04:59N 49°05' W 004°46'816.0
2017-Nov-23 04:30N 49°01' W 004°57'815.7
2017-Nov-23 04:00N 48°57' W 005°08'815.7
2017-Nov-23 03:28N 48°54' W 005°19'715.2
2017-Nov-23 03:00N 48°50' W 005°28'815.1
2017-Nov-23 02:30N 48°46' W 005°38'815.1
2017-Nov-23 01:58N 48°39' W 005°43'714.4
2017-Nov-23 01:30N 48°32' W 005°47'1914.1
2017-Nov-23 00:11N 48°16' W 005°59'  
2017-Nov-20 00:09N 30°31' W 010°02'316.4
2017-Nov-19 23:59N 30°30' W 009°59'  
2017-Nov-17 18:16N 35°58' W 005°34'311.3
2017-Nov-17 18:00N 35°57' W 005°31'232 4.6
2017-Nov-15 15:24N 37°42' W 009°49'1713.7
2017-Nov-15 14:11N 37°59' W 009°54'313.8
2017-Nov-15 13:56N 38°02' W 009°55'613.3
2017-Nov-15 13:30N 38°07' W 009°57'713.4
2017-Nov-15 13:00N 38°14' W 009°58'713.3
2017-Nov-15 12:30N 38°21' W 010°00'713.2
2017-Nov-15 12:00N 38°27' W 010°02'612.8
2017-Nov-15 11:30N 38°33' W 010°04'612.7
2017-Nov-15 11:00N 38°39' W 010°06'713.0
2017-Nov-15 10:30N 38°46' W 010°06'713.0
2017-Nov-15 10:00N 38°52' W 010°06'612.9
2017-Nov-15 09:30N 38°59' W 010°06'713.1
2017-Nov-15 09:00N 39°05' W 010°06'714.4
2017-Nov-15 08:30N 39°13' W 010°06'714.7
2017-Nov-15 08:01N 39°20' W 010°06'714.6
2017-Nov-15 07:30N 39°27' W 010°06'714.6
2017-Nov-15 07:00N 39°34' W 010°06'  
Track history (hours):
 
Tides and Currents Weather Stations Pressure Air Temp Water Temp Dewpoint Dewpoint Depression Visibility Wind Speed Wind Dir Waves Ship Positions

Max Winner

Last reported at 2017-Nov-24 14:54 UTC. Time now 2017-Nov-24 15:17 UTC.
Position N 50°09' E 000°09'.

Length 162 m; draft 7.7 m.

Type: Other ship. MMSI: 249052000.

Date/timePositionNaut miles runAvg speedWind from/ knotsBaromVisibWave heightAir tempDewpointWater temp
2017-Nov-24 14:54N 50°09' E 000°09'0 0.5
2017-Nov-24 14:18N 50°09' E 000°09'0 0.8
2017-Nov-24 13:57N 50°09' E 000°08'1 1.1
2017-Nov-24 13:21N 50°08' E 000°07'1 1.5
2017-Nov-24 13:00N 50°08' E 000°07'1 1.9
2017-Nov-24 12:29N 50°08' E 000°05'1 2.1
2017-Nov-24 11:56N 50°07' E 000°03'1 2.1
2017-Nov-24 11:26N 50°07' E 000°02'1 1.6
2017-Nov-24 10:50N 50°07' E 000°00'1 3.3
2017-Nov-24 10:30N 50°08' W 000°01'714.8
2017-Nov-24 10:00N 50°09' W 000°13'815.6
2017-Nov-24 09:30N 50°10' W 000°24'2714.2
2017-Nov-24 07:38N 50°25' W 000°59'213.9
2017-Nov-24 07:31N 50°27' W 000°60'714.8
2017-Nov-24 07:01N 50°34' W 001°00'713.7
2017-Nov-24 06:30N 50°41' W 000°58'4 9.0
2017-Nov-24 06:00N 50°44' W 001°04'5 9.7
2017-Nov-24 05:30N 50°49' W 001°07'1 1.6
2017-Nov-24 05:00N 50°49' W 001°05'0 0.0
2017-Nov-24 04:30N 50°49' W 001°05'0 0.0
2017-Nov-24 04:00N 50°49' W 001°05'0 0.0
2017-Nov-24 03:30N 50°49' W 001°05'0 0.0
2017-Nov-24 03:00N 50°49' W 001°05'0 0.0
2017-Nov-24 02:30N 50°49' W 001°05'0 0.0
2017-Nov-24 02:00N 50°49' W 001°05'0 0.0
2017-Nov-24 01:30N 50°49' W 001°05'0 0.0
2017-Nov-24 01:00N 50°49' W 001°05'0 0.0
2017-Nov-24 00:30N 50°49' W 001°05'0 0.0
2017-Nov-24 00:00N 50°49' W 001°05'0 0.0
2017-Nov-23 23:30N 50°49' W 001°05'0 0.2
2017-Nov-23 23:01N 50°49' W 001°06'1 2.5
2017-Nov-23 22:30N 50°48' W 001°07'4 7.7
2017-Nov-23 22:00N 50°44' W 001°04'5 9.2
2017-Nov-23 21:30N 50°41' W 000°58'4 8.5
2017-Nov-23 21:00N 50°37' W 000°60'4 8.5
2017-Nov-23 20:30N 50°33' W 000°59'4 8.3
2017-Nov-23 20:00N 50°29' W 000°59'13 8.1
2017-Nov-23 18:23N 50°16' W 001°00'3 7.7
2017-Nov-23 18:00N 50°13' W 001°00'4 7.3
2017-Nov-23 17:31N 50°09' W 001°01'3 6.9
2017-Nov-23 17:01N 50°08' W 001°06'3 7.0
2017-Nov-23 16:31N 50°07' W 001°11'4 7.1
2017-Nov-23 16:01N 50°06' W 001°16'4 7.1
2017-Nov-23 15:31N 50°05' W 001°22'4 7.5
2017-Nov-23 15:01N 50°04' W 001°27'5 9.6
2017-Nov-23 14:30N 50°03' W 001°35'612.2
2017-Nov-23 14:00N 50°01' W 001°44'612.9
2017-Nov-23 13:31N 49°59' W 001°53'713.4
2017-Nov-23 13:00N 49°57' W 002°03'713.9
2017-Nov-23 12:30N 49°55' W 002°14'11014.8
2017-Nov-23 05:06N 49°05' W 004°44'215.7
2017-Nov-23 04:59N 49°05' W 004°46'816.0
2017-Nov-23 04:30N 49°01' W 004°57'815.7
2017-Nov-23 04:00N 48°57' W 005°08'815.7
2017-Nov-23 03:28N 48°54' W 005°19'715.2
2017-Nov-23 03:00N 48°50' W 005°28'815.1
2017-Nov-23 02:30N 48°46' W 005°38'815.1
2017-Nov-23 01:58N 48°39' W 005°43'714.4
2017-Nov-23 01:30N 48°32' W 005°47'1914.1
2017-Nov-23 00:11N 48°16' W 005°59'  
2017-Nov-20 00:09N 30°31' W 010°02'316.4
2017-Nov-19 23:59N 30°30' W 009°59'  
2017-Nov-17 18:16N 35°58' W 005°34'311.3
2017-Nov-17 18:00N 35°57' W 005°31'232 4.6
2017-Nov-15 15:24N 37°42' W 009°49'1713.7
2017-Nov-15 14:11N 37°59' W 009°54'313.8
2017-Nov-15 13:56N 38°02' W 009°55'613.3
2017-Nov-15 13:30N 38°07' W 009°57'713.4
2017-Nov-15 13:00N 38°14' W 009°58'713.3
2017-Nov-15 12:30N 38°21' W 010°00'713.2
2017-Nov-15 12:00N 38°27' W 010°02'612.8
2017-Nov-15 11:30N 38°33' W 010°04'612.7
2017-Nov-15 11:00N 38°39' W 010°06'713.0
2017-Nov-15 10:30N 38°46' W 010°06'713.0
2017-Nov-15 10:00N 38°52' W 010°06'612.9
2017-Nov-15 09:30N 38°59' W 010°06'713.1
2017-Nov-15 09:00N 39°05' W 010°06'714.4
2017-Nov-15 08:30N 39°13' W 010°06'714.7
2017-Nov-15 08:01N 39°20' W 010°06'714.6
2017-Nov-15 07:30N 39°27' W 010°06'714.6
2017-Nov-15 07:00N 39°34' W 010°06'  

Dump ship's entire track history